Aérodrome :
LOGIN :

S'inscrire | Disclaimer

   EN    FR    IT 

 










Légende :    VFR   VFR Marginal   IFR   IFR Intensif   IFR Très Intensif
Visi : 
Plafond : 
>= 8 km
>= 3000ft
5 à 8 km
1000 à 3000 ft
1500m à 5 km
500 à 1000 ft
800 à 1500m
200 à 500 ft
< 800m
< 200 ft
Symboles :   Orages  Brouillard  Fortes neiges  Fortes précipitations  Vent > 20 kt
SIGMETs :   Divers  Orages  Givrage  Turbulence  Onde Orograph.  Cendres Volcan.







- Altitude de l'aérodrome : 1058 ft
- Code IATA : SCN


EDDR - Saarbrücken

DERNIER METAR :
  • 212150Z AUTO VRB01KT 9999 // FEW095/// BKN110/// 15/12 Q1012

METARs EXPIRÉS :
  • 212120Z AUTO VRB02KT 9999 // FEW090/// SCT110/// 15/12 Q1012
  • 212050Z VRB02KT CAVOK 15/12 Q1012
  • 212020Z 05003KT CAVOK 15/12 Q1012
  • 211950Z 09003KT CAVOK 16/13 Q1012 NOSIG
  • 211920Z VRB01KT CAVOK 18/12 Q1012 NOSIG

TAF TAF EDDR
Valide du 21 à 18h jusqu'au 22 à 18h UTC


211700Z 2118/2218 11005KT CAVOK
PROB30
TEMPO 2118/2121 TSRA SCT050CB
BECMG 2118/2120 05004KT
PROB40
TEMPO 2210/2212 23015G30KT TSRA SCT045CB
Pas de NOTAMs connus pour ce terrain.



MET'MAP, la Météo Aéronautique d'un coup d'oeil ! - Copyright ORBIFLY Décembre 2007 - Disclaimer

ORBIFLY MET'MAP TEAM :

Programmation & Développement : Alexandra Zaïnal
Conception & Développement : Baudouin d'Aumeries
Co-Programmation & Développement : Marc-Olivier Méhu
Soutien technique & logistique : Manuel Goepfert

Contact : metmap@orbifly.com




SOURCES & CREDITS :

   NOAA